Latest Weather Observations for Edinburgh

IDS60901

Issued at 8:51 am CDT Monday 26 January 2015 (issued every 10 minutes, with the page automatically refreshed every 10 minutes)

About weather observations | Map of Adelaide area stations | Latest observations for Adelaide area | Other Formats
Station Details ID: 023083 Name: EDINBURGH RAAF Lat: -34.71 Lon: 138.62 Height: 16.54 m
Data from the previous 72 hours. | See also: Recent months at Edinburgh
Date/Time
CDT
Tmp

°C
App
Tmp
°C
Dew
Point
°C
Rel
Hum
%
Delta-T

°C
Wind Press
QNH
hPa
Press
MSL
hPa
Rain
since
9 am
mm
Dir
 
Spd
km/h
Gust
km/h
Spd
kts
Gust
kts
26/08:30am 16.6 14.5 8.1 57 4.3 SSE 9 13 5 7 1018.6 1018.5 0.0
26/08:00am 16.5 14.0 8.0 57 4.3 SE 11 13 6 7 1018.1 1018.0 0.0
26/07:30am 16.2 14.0 7.9 58 4.2 SSE 9 13 5 7 1017.8 1017.7 0.0
26/07:00am 15.9 14.2 8.2 60 3.9 SSE 7 11 4 6 1017.5 1017.4 0.0
26/06:30am 15.8 14.1 8.3 61 3.8 SSE 7 9 4 5 1017.2 1017.1 0.0
26/06:00am 15.7 14.0 8.4 62 3.7 SSE 7 9 4 5 1017.0 1016.9 0.0
26/05:30am 15.6 13.5 8.4 62 3.6 ENE 9 11 5 6 1016.7 1016.6 0.0
26/05:00am 15.5 13.7 7.8 60 3.8 WSW 7 9 4 5 1016.6 1016.5 0.0
26/04:30am 15.0 13.1 7.5 61 3.7 ESE 7 9 4 5 1016.2 1016.1 0.0
26/04:00am 15.8 13.5 7.3 57 4.2 SSE 9 13 5 7 1016.2 1016.1 0.0
26/03:30am 15.8 13.8 7.0 56 4.3 S 7 9 4 5 1016.1 1016.0 0.0
26/03:00am 15.8 13.5 7.3 57 4.2 S 9 11 5 6 1016.0 1015.9 0.0
26/02:30am 15.8 13.5 7.3 57 4.2 S 9 11 5 6 1016.1 1016.0 0.0
26/02:00am 15.8 13.7 6.8 55 4.4 SSE 7 11 4 6 1016.2 1016.1 0.0
26/01:30am 15.6 13.5 6.6 55 4.4 SSE 7 9 4 5 1016.3 1016.2 0.0
26/01:00am 15.5 13.4 6.8 56 4.3 S 7 9 4 5 1016.5 1016.4 0.0
26/12:30am 15.4 12.9 6.4 55 4.4 SE 9 13 5 7 1016.5 1016.4 0.0
26/12:00am 15.8 12.5 6.3 53 4.6 S 13 19 7 10 1016.8 1016.7 0.0
 
Date/Time
CDT
Tmp

°C
App
Tmp
°C
Dew
Point
°C
Rel
Hum
%
Delta-T

°C
Wind Press
QNH
hPa
Press
MSL
hPa
Rain
since
9 am
mm
Dir
 
Spd
km/h
Gust
km/h
Spd
kts
Gust
kts
25/11:30pm 16.0 12.2 5.9 51 4.9 SSE 15 20 8 11 1016.7 1016.6 0.0
25/11:00pm 16.2 11.6 5.5 49 5.1 S 19 26 10 14 1016.7 1016.6 0.0
25/10:30pm 16.8 12.8 5.1 46 5.6 S 15 28 8 15 1016.5 1016.4 0.0
25/10:00pm 17.2 13.2 4.9 44 5.9 S 15 22 8 12 1016.2 1016.1 0.0
25/09:30pm 17.5 12.5 4.8 43 6.1 S 20 32 11 17 1015.7 1015.6 0.0
25/09:00pm 17.8 12.4 4.7 42 6.2 S 22 32 12 17 1015.2 1015.1 0.0
25/08:30pm 18.0 12.1 5.6 44 6.0 SE 26 32 14 17 1014.9 1014.8 0.0
25/08:00pm 18.5 12.2 3.9 38 6.9 SE 26 33 14 18 1014.6 1014.5 0.0
25/07:30pm 19.7 12.5 5.0 38 7.2 SSE 32 41 17 22 1014.3 1014.2 0.0
25/07:00pm 19.9 12.8 5.5 39 7.1 SE 32 41 17 22 1014.1 1014.0 0.0
25/06:30pm 20.5 13.6 6.4 40 7.1 SE 32 39 17 21 1013.9 1013.8 0.0
25/06:00pm 20.8 14.0 6.7 40 7.1 SE 32 43 17 23 1013.7 1013.6 0.0
25/05:30pm 19.7 12.4 7.1 44 6.4 SE 35 46 19 25 1013.8 1013.7 0.0
25/05:00pm 20.9 14.1 6.8 40 7.2 SE 32 43 17 23 1013.7 1013.6 0.0
25/04:30pm 21.8 15.8 6.9 38 7.6 S 28 39 15 21 1013.9 1013.8 0.0
25/04:00pm 21.2 14.1 5.5 36 7.8 S 32 46 17 25 1013.9 1013.8 0.0
25/03:30pm 21.1 14.7 5.1 35 7.9 SSE 28 41 15 22 1014.1 1014.0 0.0
25/03:18pm 21.3 14.2 5.6 36 7.8 S 32 48 17 26 1014.0 1013.9 0.0
25/03:00pm 20.8 12.6 4.8 35 7.8 S 37 52 20 28 1014.3 1014.2 0.0
25/02:30pm 20.8 12.8 4.0 33 8.1 S 35 46 19 25 1014.4 1014.3 0.0
25/02:00pm 21.2 14.4 6.7 39 7.4 S 32 46 17 25 1014.5 1014.4 0.0
25/01:30pm 20.9 13.2 5.3 36 7.7 S 35 48 19 26 1014.2 1014.1 0.0
25/01:19pm 21.0 13.6 4.1 33 8.2 S 32 59 17 32 1014.2 1014.1 0.0
25/01:00pm 20.0 12.8 4.9 37 7.4 SSW 32 43 17 23 1014.4 1014.3 0.0
25/12:30pm 20.1 12.4 5.4 38 7.2 S 35 46 19 25 1014.6 1014.5 0.0
25/12:00pm 20.4 13.6 7.1 42 6.8 S 32 41 17 22 1014.5 1014.4 0.0
25/11:30am 19.0 12.0 6.8 45 6.1 S 33 44 18 24 1014.5 1014.4 0.0
25/11:00am 19.4 12.4 6.2 42 6.6 S 32 39 17 21 1014.2 1014.1 0.0
25/10:30am 18.8 11.6 6.0 43 6.3 S 33 41 18 22 1013.7 1013.6 0.0
25/10:00am 19.6 13.5 6.7 43 6.5 S 28 37 15 20 1013.7 1013.6 0.0
25/09:30am 18.1 12.8 6.6 47 5.7 S 24 33 13 18 1013.9 1013.8 0.0
25/09:00am 18.3 13.2 5.8 44 6.1 S 22 30 12 16 1013.4 1013.3 0.0
25/08:30am 18.1 13.7 7.2 49 5.5 S 20 33 11 18 1013.1 1013.0 0.0
25/08:00am 17.0 12.5 5.9 48 5.4 S 19 24 10 13 1012.9 1012.8 0.0
25/07:30am 16.7 12.5 5.9 49 5.2 S 17 22 9 12 1012.3 1012.2 0.0
25/07:00am 16.0 12.3 6.2 52 4.8 S 15 22 8 12 1011.9 1011.8 0.0
25/06:30am 15.3 11.2 6.1 54 4.4 S 17 22 9 12 1011.6 1011.5 0.0
25/06:00am 16.1 11.8 7.1 55 4.5 S 19 24 10 13 1011.0 1010.9 0.0
25/05:30am 16.0 11.5 7.0 55 4.4 S 20 28 11 15 1010.7 1010.6 0.0
25/05:00am 16.1 11.5 8.1 59 4.0 S 22 28 12 15 1010.3 1010.2 0.0
25/04:30am 16.1 11.7 7.6 57 4.3 SSW 20 24 11 13 1010.3 1010.2 0.0
25/04:00am 16.3 10.8 7.5 56 4.4 SSW 26 32 14 17 1010.0 1009.9 0.0
25/03:30am 16.5 11.1 8.0 57 4.3 SSW 26 32 14 17 1009.9 1009.8 0.0
25/03:00am 16.9 11.1 7.8 55 4.6 SSW 28 39 15 21 1009.9 1009.8 0.0
25/02:30am 17.6 11.3 9.0 57 4.5 SSW 32 41 17 22 1010.1 1010.0 0.0
25/02:00am 17.8 12.6 10.2 61 4.0 S 28 39 15 21 1010.0 1009.9 0.0
25/01:30am 17.9 12.8 10.5 62 4.0 SSW 28 37 15 20 1010.0 1009.9 0.0
25/01:00am 17.9 12.9 10.8 63 3.8 SSW 28 39 15 21 1010.0 1009.9 0.0
25/12:30am 18.6 12.6 12.1 66 3.6 SSW 35 44 19 24 1009.9 1009.8 0.0
25/12:00am 18.7 12.7 12.2 66 3.6 SSW 35 44 19 24 1009.7 1009.6 0.0
 
Date/Time
CDT
Tmp

°C
App
Tmp
°C
Dew
Point
°C
Rel
Hum
%
Delta-T

°C
Wind Press
QNH
hPa
Press
MSL
hPa
Rain
since
9 am
mm
Dir
 
Spd
km/h
Gust
km/h
Spd
kts
Gust
kts
24/11:30pm 18.6 13.1 13.7 73 2.8 SW 35 44 19 24 1009.7 1009.6 0.0
24/11:00pm 19.0 13.9 13.0 68 3.4 SSW 32 39 17 21 1009.6 1009.5 0.0
24/10:30pm 19.3 13.9 12.8 66 3.7 SSW 33 44 18 24 1009.5 1009.4 0.0
24/10:00pm 18.9 14.0 14.2 74 2.7 SSW 33 44 18 24 1009.3 1009.2 0.0
24/09:30pm 21.1 14.2 11.7 55 5.2 SSW 39 50 21 27 1008.4 1008.4 0.0
24/09:29pm 21.1 14.7 12.0 56 5.1 SSW 37 50 20 27 1008.4 1008.4 0.0
24/09:00pm 21.6 15.5 11.9 54 5.4 WSW 35 50 19 27 1008.0 1008.0 0.0
24/08:59pm 21.8 15.7 11.8 53 5.6 WSW 35 46 19 25 1008.0 1008.0 0.0
24/08:30pm 21.2 18.6 13.9 63 4.2 S 20 26 11 14 1007.8 1007.8 0.0
24/08:00pm 21.3 18.2 13.5 61 4.5 SSW 22 28 12 15 1007.7 1007.7 0.0
24/07:30pm 22.3 19.3 13.6 58 5.1 SSW 22 26 12 14 1007.5 1007.5 0.0
24/07:00pm 23.3 19.7 12.9 52 6.0 SSW 24 33 13 18 1007.3 1007.3 0.0
24/06:30pm 23.3 20.5 13.2 53 5.9 SSW 20 32 11 17 1006.9 1006.9 0.0
24/06:00pm 24.2 21.1 12.2 47 6.9 SW 20 28 11 15 1006.9 1006.9 0.0
24/05:30pm 23.9 19.5 11.6 46 7.0 WSW 26 37 14 20 1007.1 1007.1 0.0
24/05:00pm 23.4 18.6 11.5 47 6.7 SSW 28 35 15 19 1007.1 1007.1 0.0
24/04:30pm 24.2 19.1 11.9 46 7.0 SW 30 43 16 23 1007.3 1007.3 0.0
24/04:00pm 24.6 20.7 12.2 46 7.1 SW 24 35 13 19 1007.1 1007.1 0.0
24/03:30pm 23.8 18.8 10.8 44 7.2 SW 28 41 15 22 1007.4 1007.4 0.0
24/03:00pm 23.4 18.8 9.8 42 7.4 W 24 33 13 18 1007.5 1007.5 0.0
24/02:30pm 23.1 18.4 10.5 45 7.0 SW 26 37 14 20 1007.8 1007.8 0.0
24/02:00pm 23.3 19.2 10.0 43 7.3 WSW 22 33 12 18 1007.9 1007.9 0.0
24/01:30pm 22.2 17.4 9.0 43 7.1 WSW 24 35 13 19 1008.2 1008.2 0.0
24/01:00pm 22.2 18.4 9.7 45 6.8 SSW 20 32 11 17 1008.2 1008.2 0.0
24/12:30pm 22.0 18.1 9.5 45 6.7 SW 20 30 11 16 1008.5 1008.5 0.0
24/12:00pm 21.9 18.4 10.1 47 6.4 WSW 19 30 10 16 1008.7 1008.6 0.0
24/11:30am 21.0 16.8 9.9 49 6.0 W 22 30 12 16 1008.8 1008.7 0.0
24/11:00am 21.1 17.9 11.2 53 5.5 WSW 19 30 10 16 1008.8 1008.7 0.0
24/10:30am 20.3 16.6 11.5 57 4.9 SW 22 32 12 17 1009.1 1009.0 0.0
24/10:00am 20.7 16.6 11.3 55 5.2 WSW 24 32 13 17 1009.1 1009.0 0.0
24/09:30am 20.6 16.1 11.5 56 5.0 WSW 26 33 14 18 1008.9 1008.8 0.0
24/09:00am 18.8 14.6 11.1 61 4.2 W 24 32 13 17 1009.0 1008.9 0.0
24/08:30am 17.6 17.1 12.5 72 2.8 N 7 11 4 6 1008.8 1008.7 0.0
24/08:00am 16.9 15.9 12.4 75 2.5 N 9 13 5 7 1008.8 1008.7 0.0
24/07:30am 16.3 15.2 12.1 76 2.3 NNE 9 13 5 7 1008.3 1008.3 0.0
24/07:00am 15.9 14.3 11.7 76 2.3 N 11 13 6 7 1008.3 1008.3 0.0
24/06:30am 15.9 13.9 11.5 75 2.4 N 13 17 7 9 1008.1 1008.1 0.0
24/06:00am 15.8 14.2 11.6 76 2.3 NNE 11 13 6 7 1008.1 1008.1 0.0
24/05:30am 15.6 14.5 11.8 78 2.1 NNE 9 11 5 6 1008.1 1008.1 0.0
24/05:00am 15.2 13.6 11.4 78 2.0 NNE 11 15 6 8 1007.9 1007.9 0.0
24/04:30am 14.7 13.0 11.1 79 1.9 NNE 11 13 6 7 1008.1 1008.1 0.0
24/04:00am 15.1 13.5 11.5 79 1.9 ENE 11 13 6 7 1008.1 1008.1 0.0
24/03:30am 14.0 12.9 10.6 80 1.8 N 7 9 4 5 1008.4 1008.4 0.0
24/03:00am 14.0 13.0 10.4 79 1.9 NNE 6 7 3 4 1008.5 1008.5 0.0
24/02:30am 15.6 16.0 11.4 76 2.3 CALM 0 0 0 0 1008.5 1008.5 0.0
24/02:00am 15.3 15.5 10.5 73 2.5 CALM 0 0 0 0 1008.8 1008.7 0.0
24/01:30am 16.4 15.7 11.3 72 2.8 NE 6 9 3 5 1008.9 1008.8 0.0
24/01:00am 16.9 16.0 10.5 66 3.4 E 6 9 3 5 1009.2 1009.1 0.0
24/12:30am 17.7 16.8 10.8 64 3.7 ESE 6 9 3 5 1009.4 1009.3 0.0
24/12:00am 18.0 17.0 10.9 63 3.8 SSE 7 9 4 5 1009.4 1009.3 0.0
 
Date/Time
CDT
Tmp

°C
App
Tmp
°C
Dew
Point
°C
Rel
Hum
%
Delta-T

°C
Wind Press
QNH
hPa
Press
MSL
hPa
Rain
since
9 am
mm
Dir
 
Spd
km/h
Gust
km/h
Spd
kts
Gust
kts
23/11:30pm 18.5 16.7 10.8 61 4.2 ESE 11 15 6 8 1009.7 1009.6 0.0
23/11:00pm 18.8 17.8 10.9 60 4.3 SSE 7 9 4 5 1009.6 1009.5 0.0
23/10:30pm 19.2 17.4 11.0 59 4.5 SSE 11 13 6 7 1009.2 1009.1 0.0
23/10:00pm 19.9 17.4 11.1 57 4.8 SSE 15 22 8 12 1009.0 1008.9 0.0
23/09:30pm 19.9 16.5 12.4 62 4.2 S 22 30 12 16 1009.0 1008.9 0.0
23/09:00pm 20.2 17.1 11.7 58 4.7 S 19 24 10 13 1008.9 1008.8 0.0
23/08:30pm 20.6 17.1 12.1 58 4.8 SSE 22 28 12 15 1008.4 1008.4 0.0
23/08:00pm 21.1 16.6 12.5 58 4.9 SSE 28 33 15 18 1008.1 1008.1 0.0
23/07:30pm 22.1 17.6 12.6 55 5.4 S 28 35 15 19 1007.9 1007.9 0.0
23/07:00pm 22.7 18.1 12.3 52 5.9 S 28 35 15 19 1007.8 1007.8 0.0
23/06:30pm 23.1 18.4 12.1 50 6.2 S 28 37 15 20 1007.8 1007.8 0.0
23/06:00pm 23.7 18.9 11.7 47 6.8 S 28 35 15 19 1007.8 1007.8 0.0
23/05:30pm 24.1 19.8 13.3 51 6.3 S 28 35 15 19 1007.8 1007.8 0.0
23/05:00pm 24.4 20.6 12.4 47 6.9 SSW 24 32 13 17 1007.9 1007.9 0.0
23/04:30pm 25.0 22.2 13.2 48 6.9 SSW 20 32 11 17 1008.1 1008.1 0.0
23/04:00pm 24.8 21.9 13.0 47 6.8 S 20 30 11 16 1008.3 1008.3 0.0
23/03:30pm 23.8 20.5 12.8 50 6.3 SW 22 32 12 17 1008.8 1008.7 0.0
23/03:00pm 23.9 19.8 12.8 49 6.4 SW 26 37 14 20 1008.8 1008.7 0.0
23/02:30pm 24.0 19.3 13.2 50 6.3 SW 30 39 16 21 1008.9 1008.8 0.0
23/02:00pm 24.3 19.7 13.5 51 6.3 SSW 30 39 16 21 1009.0 1008.9 0.0
23/01:30pm 24.2 20.4 13.7 52 6.2 S 26 37 14 20 1009.3 1009.2 0.0
23/01:00pm 23.8 20.1 13.9 54 5.8 SSW 26 35 14 19 1009.4 1009.3 0.0
23/12:30pm 23.8 19.8 14.2 55 5.7 SW 28 35 15 19 1009.4 1009.3 0.0
23/12:00pm 24.1 21.7 14.5 55 5.7 S 20 30 11 16 1009.4 1009.3 0.0
23/11:30am 23.3 20.5 14.3 57 5.3 SSW 22 35 12 19 1009.5 1009.4 0.0
23/11:00am 22.4 20.0 13.7 58 5.1 S 19 24 10 13 1009.9 1009.8 0.0
23/10:30am 21.0 17.3 15.1 69 3.5 S 28 33 15 18 1010.2 1010.1 0.0
23/10:00am 21.3 17.6 14.0 63 4.2 S 26 32 14 17 1010.0 1009.9 0.0
23/09:30am 22.6 19.9 14.7 61 4.7 S 22 30 12 16 1010.0 1009.9 0.0
23/09:00am 21.6 18.9 14.7 65 4.1 S 22 32 12 17 1009.7 1009.6 0.0

Latest Capital City Observations: Canberra | Sydney | Melbourne | Brisbane | Adelaide | Perth | Hobart | Darwin

Other Formats:

Comma delimited format used in spreadsheet applications
http://www.bom.gov.au/fwo/IDS60901/IDS60901.95676.axf

JavaScript Object Notation format (JSON) in row-major order
http://www.bom.gov.au/fwo/IDS60901/IDS60901.95676.json